Time;durP1;ratioP1;P1;durP2;ratioP2;P2;SDS_P1;SDS_P2;PMS_P1;PMS_P2;Temp;Humidity;BMP_temperature;BMP_pressure;BME280_temperature;BME280_humidity;BME280_pressure;Samples;Min_cycle;Max_cycle;Signal;HPM_P1;HPM_P2
2023/05/30 00:01:01;;;;;;;0.00;0.00;;;;;;;;;;5036342;28;20200;-80
2023/05/30 00:03:30;;;;;;;0.00;0.00;;;;;;;;;;5031971;28;20644;-78
2023/05/30 00:05:58;;;;;;;0.00;0.00;;;;;;;;;;5046400;28;20212;-82
2023/05/30 00:08:27;;;;;;;0.00;0.00;;;;;;;;;;5050595;28;20263;-78
2023/05/30 00:10:56;;;;;;;0.00;0.00;;;;;;;;;;5051060;28;20246;-78
2023/05/30 00:13:28;;;;;;;0.00;0.00;;;;;;;;;;5051351;28;20206;-79
2023/05/30 00:15:57;;;;;;;0.00;0.00;;;;;;;;;;5048997;28;20283;-80
2023/05/30 00:18:34;;;;;;;0.00;0.00;;;;;;;;;;5051450;28;20218;-79
2023/05/30 00:21:03;;;;;;;0.00;0.00;;;;;;;;;;5050798;28;20567;-79
2023/05/30 00:23:32;;;;;;;0.00;0.00;;;;;;;;;;5051076;28;20268;-78
2023/05/30 00:26:01;;;;;;;0.00;0.00;;;;;;;;;;5050874;28;20226;-78
2023/05/30 00:28:30;;;;;;;0.00;0.00;;;;;;;;;;5051540;28;20235;-78
2023/05/30 00:30:58;;;;;;;0.00;0.00;;;;;;;;;;5047452;28;20598;-79
2023/05/30 00:33:28;;;;;;;0.00;0.00;;;;;;;;;;5049819;28;20208;-79
2023/05/30 00:35:56;;;;;;;0.00;0.00;;;;;;;;;;5049091;28;20216;-80
2023/05/30 00:38:25;;;;;;;0.00;0.00;;;;;;;;;;5047642;28;20200;-75
2023/05/30 00:40:53;;;;;;;0.00;0.00;;;;;;;;;;5049672;28;20714;-78
2023/05/30 00:43:22;;;;;;;0.00;0.00;;;;;;;;;;5048735;28;20578;-78
2023/05/30 00:45:53;;;;;;;0.00;0.00;;;;;;;;;;5047511;28;20219;-79
2023/05/30 00:48:23;;;;;;;0.00;0.00;;;;;;;;;;5047509;28;20200;-77
2023/05/30 00:50:53;;;;;;;0.00;0.00;;;;;;;;;;5048965;28;20282;-81
2023/05/30 00:53:23;;;;;;;0.00;0.00;;;;;;;;;;5049113;28;20655;-78
2023/05/30 00:55:52;;;;;;;0.00;0.00;;;;;;;;;;5048030;28;20235;-80
2023/05/30 00:58:21;;;;;;;0.00;0.00;;;;;;;;;;5048059;28;20577;-77
2023/05/30 01:00:51;;;;;;;0.00;0.00;;;;;;;;;;5047420;28;20219;-79
2023/05/30 01:03:22;;;;;;;0.00;0.00;;;;;;;;;;5047062;28;20208;-81
2023/05/30 01:05:51;;;;;;;0.00;0.00;;;;;;;;;;5040579;28;20220;-82
2023/05/30 01:08:20;;;;;;;0.00;0.00;;;;;;;;;;5043467;28;20203;-85
2023/05/30 01:10:51;;;;;;;0.00;0.00;;;;;;;;;;5040762;28;20203;-83
2023/05/30 01:13:35;;;;;;;0.00;0.00;;;;;;;;;;5042724;28;20192;-83
2023/05/30 01:16:07;;;;;;;0.00;0.00;;;;;;;;;;5032969;28;20227;-85
2023/05/30 01:18:40;;;;;;;0.00;0.00;;;;;;;;;;5043566;28;20227;-76
2023/05/30 01:21:12;;;;;;;0.00;0.00;;;;;;;;;;5044416;28;20231;-80
2023/05/30 01:23:52;;;;;;;0.00;0.00;;;;;;;;;;5044574;28;20185;-83
2023/05/30 01:26:26;;;;;;;0.00;0.00;;;;;;;;;;5043909;28;20196;-78
2023/05/30 01:28:58;;;;;;;0.00;0.00;;;;;;;;;;5036769;28;20599;-81
2023/05/30 01:31:26;;;;;;;0.00;0.00;;;;;;;;;;5042617;28;20215;-78
2023/05/30 01:33:55;;;;;;;0.00;0.00;;;;;;;;;;5028200;28;20228;-79
2023/05/30 01:36:24;;;;;;;0.00;0.00;;;;;;;;;;5043144;28;20196;-77
2023/05/30 01:38:52;;;;;;;0.00;0.00;;;;;;;;;;5046614;28;20214;-84
2023/05/30 01:41:23;;;;;;;0.00;0.00;;;;;;;;;;5044529;28;20231;-83
2023/05/30 01:43:57;;;;;;;0.00;0.00;;;;;;;;;;5042123;28;20195;-74
2023/05/30 01:46:30;;;;;;;0.00;0.00;;;;;;;;;;5034592;28;20295;-84
2023/05/30 01:49:01;;;;;;;0.00;0.00;;;;;;;;;;5022261;28;20560;-79
2023/05/30 01:51:32;;;;;;;0.00;0.00;;;;;;;;;;5035340;28;20199;-81
2023/05/30 01:54:01;;;;;;;0.00;0.00;;;;;;;;;;5034008;28;20206;-84
2023/05/30 01:56:31;;;;;;;0.00;0.00;;;;;;;;;;5035395;28;20214;-84
2023/05/30 01:59:01;;;;;;;0.00;0.00;;;;;;;;;;5035575;28;20204;-84
2023/05/30 02:01:31;;;;;;;0.00;0.00;;;;;;;;;;5033121;28;20223;-84
2023/05/30 02:04:00;;;;;;;0.00;0.00;;;;;;;;;;5033601;28;20215;-81
2023/05/30 02:06:29;;;;;;;0.00;0.00;;;;;;;;;;5035549;28;20569;-77
2023/05/30 02:08:57;;;;;;;0.00;0.00;;;;;;;;;;5035715;28;20204;-78
2023/05/30 02:11:26;;;;;;;0.00;0.00;;;;;;;;;;5035216;28;20298;-81
2023/05/30 02:13:55;;;;;;;0.00;0.00;;;;;;;;;;5034116;28;20204;-78
2023/05/30 02:16:24;;;;;;;0.00;0.00;;;;;;;;;;5034347;28;20244;-78
2023/05/30 02:18:54;;;;;;;0.00;0.00;;;;;;;;;;5035396;28;20226;-84
2023/05/30 02:21:22;;;;;;;0.00;0.00;;;;;;;;;;5034226;28;20211;-79
2023/05/30 02:23:51;;;;;;;0.00;0.00;;;;;;;;;;5035148;28;20200;-77
2023/05/30 02:26:20;;;;;;;0.00;0.00;;;;;;;;;;5034552;28;20668;-82
2023/05/30 02:28:49;;;;;;;0.00;0.00;;;;;;;;;;5035039;28;20648;-83
2023/05/30 02:31:17;;;;;;;0.00;0.00;;;;;;;;;;5033444;28;20210;-84
2023/05/30 02:33:46;;;;;;;0.00;0.00;;;;;;;;;;5020722;28;20216;-79
2023/05/30 02:36:15;;;;;;;0.00;0.00;;;;;;;;;;5016693;28;20228;-80
2023/05/30 02:38:44;;;;;;;0.00;0.00;;;;;;;;;;5028582;28;20207;-79
2023/05/30 02:41:12;;;;;;;0.00;0.00;;;;;;;;;;5045438;28;20222;-80
2023/05/30 02:43:41;;;;;;;0.00;0.00;;;;;;;;;;5045229;28;20217;-82
2023/05/30 02:46:09;;;;;;;0.00;0.00;;;;;;;;;;5038911;28;20224;-81
2023/05/30 02:48:38;;;;;;;0.00;0.00;;;;;;;;;;5034767;28;20208;-82
2023/05/30 02:51:06;;;;;;;0.00;0.00;;;;;;;;;;5035115;28;20639;-84
2023/05/30 02:53:36;;;;;;;0.00;0.00;;;;;;;;;;5036891;28;20231;-84
2023/05/30 02:56:05;;;;;;;0.00;0.00;;;;;;;;;;5039551;28;20230;-79
2023/05/30 02:58:34;;;;;;;0.00;0.00;;;;;;;;;;5038842;28;20234;-82
2023/05/30 03:01:03;;;;;;;0.00;0.00;;;;;;;;;;5038444;28;20316;-85
2023/05/30 03:03:34;;;;;;;0.00;0.00;;;;;;;;;;5038205;28;20294;-82
2023/05/30 03:06:04;;;;;;;0.00;0.00;;;;;;;;;;5038993;28;20226;-83
2023/05/30 03:08:33;;;;;;;0.00;0.00;;;;;;;;;;5039068;28;20283;-79
2023/05/30 03:11:03;;;;;;;0.00;0.00;;;;;;;;;;5040035;28;20730;-80
2023/05/30 03:13:32;;;;;;;0.00;0.00;;;;;;;;;;5039015;28;20210;-84
2023/05/30 03:16:02;;;;;;;0.00;0.00;;;;;;;;;;5040509;28;20684;-79
2023/05/30 03:18:31;;;;;;;0.00;0.00;;;;;;;;;;5047491;28;20212;-84
2023/05/30 03:20:59;;;;;;;0.00;0.00;;;;;;;;;;5045843;28;20229;-86
2023/05/30 03:23:28;;;;;;;0.00;0.00;;;;;;;;;;5048450;28;20203;-83
2023/05/30 03:25:57;;;;;;;0.00;0.00;;;;;;;;;;5049922;28;20255;-81
2023/05/30 03:28:27;;;;;;;0.00;0.00;;;;;;;;;;5047704;28;20658;-80
2023/05/30 03:30:56;;;;;;;0.00;0.00;;;;;;;;;;5047497;28;20226;-82
2023/05/30 03:33:28;;;;;;;0.00;0.00;;;;;;;;;;5047140;28;20234;-77
2023/05/30 03:35:56;;;;;;;0.00;0.00;;;;;;;;;;5046478;28;20232;-80
2023/05/30 03:38:25;;;;;;;0.00;0.00;;;;;;;;;;5047255;28;20235;-83
2023/05/30 03:40:53;;;;;;;0.00;0.00;;;;;;;;;;5046641;28;20694;-85
2023/05/30 03:43:22;;;;;;;0.00;0.00;;;;;;;;;;5047462;28;20212;-80
2023/05/30 03:45:52;;;;;;;0.00;0.00;;;;;;;;;;5046413;28;20230;-79
2023/05/30 03:48:20;;;;;;;0.00;0.00;;;;;;;;;;5048263;28;20216;-84
2023/05/30 03:50:49;;;;;;;0.00;0.00;;;;;;;;;;5046412;28;20204;-81
2023/05/30 03:53:17;;;;;;;0.00;0.00;;;;;;;;;;5048016;28;20224;-82
2023/05/30 03:55:47;;;;;;;0.00;0.00;;;;;;;;;;5046549;28;20231;-83
2023/05/30 03:58:15;;;;;;;0.10;0.10;;;;;;;;;;5045361;28;20708;-83
2023/05/30 04:00:44;;;;;;;0.00;0.00;;;;;;;;;;5045511;28;20215;-82
2023/05/30 04:03:14;;;;;;;0.00;0.00;;;;;;;;;;5046122;28;20204;-84
2023/05/30 04:05:42;;;;;;;0.00;0.00;;;;;;;;;;5045933;28;20223;-81
2023/05/30 04:08:11;;;;;;;0.00;0.00;;;;;;;;;;5047517;28;20214;-81
2023/05/30 04:10:39;;;;;;;0.10;0.10;;;;;;;;;;5048656;28;20199;-79
2023/05/30 04:13:08;;;;;;;0.00;0.00;;;;;;;;;;5048181;28;20203;-80
2023/05/30 04:15:36;;;;;;;0.00;0.00;;;;;;;;;;5047160;28;20293;-81
2023/05/30 04:18:05;;;;;;;0.00;0.00;;;;;;;;;;5046057;28;20665;-80
2023/05/30 04:20:35;;;;;;;0.00;0.00;;;;;;;;;;5047803;28;20200;-82
2023/05/30 04:23:04;;;;;;;0.00;0.00;;;;;;;;;;5048603;28;20219;-83
2023/05/30 04:25:32;;;;;;;0.00;0.00;;;;;;;;;;5048045;28;20234;-83
2023/05/30 04:28:05;;;;;;;0.00;0.00;;;;;;;;;;5049577;28;20653;-78
2023/05/30 04:30:34;;;;;;;0.00;0.00;;;;;;;;;;5048438;28;20229;-80
2023/05/30 04:33:04;;;;;;;0.00;0.00;;;;;;;;;;5047360;28;20230;-84
2023/05/30 04:35:33;;;;;;;0.00;0.00;;;;;;;;;;5046890;28;20223;-84
2023/05/30 04:38:03;;;;;;;0.00;0.00;;;;;;;;;;5045653;28;20204;-83
2023/05/30 04:40:32;;;;;;;0.00;0.00;;;;;;;;;;5047168;28;20230;-85
2023/05/30 04:43:01;;;;;;;0.00;0.00;;;;;;;;;;5046857;28;20219;-83
2023/05/30 04:45:31;;;;;;;0.00;0.00;;;;;;;;;;5045843;28;20222;-81
2023/05/30 04:48:00;;;;;;;0.00;0.00;;;;;;;;;;5048022;28;20205;-79
2023/05/30 04:50:29;;;;;;;0.00;0.00;;;;;;;;;;5039719;28;20207;-85
2023/05/30 04:52:58;;;;;;;0.00;0.00;;;;;;;;;;5030135;28;20212;-83
2023/05/30 04:55:28;;;;;;;0.00;0.00;;;;;;;;;;5033403;28;20238;-81
2023/05/30 04:57:56;;;;;;;0.00;0.00;;;;;;;;;;5048609;28;20214;-83
2023/05/30 05:00:25;;;;;;;0.00;0.00;;;;;;;;;;5047435;28;20210;-84
2023/05/30 05:02:54;;;;;;;0.00;0.00;;;;;;;;;;5046812;28;20235;-85
2023/05/30 05:05:23;;;;;;;0.03;0.03;;;;;;;;;;5048192;28;20232;-82
2023/05/30 05:07:51;;;;;;;0.00;0.00;;;;;;;;;;5047655;28;20206;-82
2023/05/30 05:10:20;;;;;;;0.00;0.00;;;;;;;;;;5047888;28;20195;-85
2023/05/30 05:12:50;;;;;;;0.00;0.00;;;;;;;;;;5046362;28;20535;-84
2023/05/30 05:15:18;;;;;;;0.00;0.00;;;;;;;;;;5047285;28;20318;-82
2023/05/30 05:17:47;;;;;;;0.00;0.00;;;;;;;;;;5047324;28;20664;-80
2023/05/30 05:20:15;;;;;;;0.00;0.00;;;;;;;;;;5047229;28;20255;-78
2023/05/30 05:22:44;;;;;;;0.00;0.00;;;;;;;;;;5046325;28;20684;-82
2023/05/30 05:25:13;;;;;;;0.00;0.00;;;;;;;;;;5048797;28;20357;-78
2023/05/30 05:27:42;;;;;;;0.00;0.00;;;;;;;;;;5048142;28;20608;-81
2023/05/30 05:30:12;;;;;;;0.00;0.00;;;;;;;;;;5048734;28;20212;-80
2023/05/30 05:32:41;;;;;;;0.00;0.00;;;;;;;;;;5049796;28;20196;-82
2023/05/30 05:35:10;;;;;;;0.00;0.00;;;;;;;;;;5049167;28;20310;-84
2023/05/30 05:37:38;;;;;;;0.00;0.00;;;;;;;;;;5049016;28;20204;-80
2023/05/30 05:40:08;;;;;;;0.00;0.00;;;;;;;;;;5040052;28;20205;-79
2023/05/30 05:42:37;;;;;;;0.00;0.00;;;;;;;;;;5034991;28;20279;-77
2023/05/30 05:45:06;;;;;;;0.00;0.00;;;;;;;;;;5049180;28;20228;-83
2023/05/30 05:47:36;;;;;;;0.00;0.00;;;;;;;;;;5048164;28;20208;-84
2023/05/30 05:50:05;;;;;;;0.00;0.00;;;;;;;;;;5043856;28;20192;-84
2023/05/30 05:52:34;;;;;;;0.00;0.00;;;;;;;;;;5043526;28;20260;-85
2023/05/30 05:55:02;;;;;;;0.00;0.00;;;;;;;;;;5042818;28;20222;-85
2023/05/30 05:57:31;;;;;;;0.00;0.00;;;;;;;;;;5043920;28;20200;-84
2023/05/30 06:00:00;;;;;;;0.00;0.00;;;;;;;;;;5042445;28;20214;-85
2023/05/30 06:02:29;;;;;;;0.00;0.00;;;;;;;;;;5045414;28;20211;-83
2023/05/30 06:04:59;;;;;;;0.00;0.00;;;;;;;;;;5023370;28;20701;-78
2023/05/30 06:07:27;;;;;;;0.00;0.00;;;;;;;;;;5043516;28;20291;-85
2023/05/30 06:09:56;;;;;;;0.00;0.00;;;;;;;;;;5044623;28;20695;-86
2023/05/30 06:12:24;;;;;;;0.00;0.00;;;;;;;;;;5043620;28;20196;-82
2023/05/30 06:14:53;;;;;;;0.00;0.00;;;;;;;;;;5043068;28;20224;-81
2023/05/30 06:17:21;;;;;;;0.00;0.00;;;;;;;;;;5044079;28;20202;-86
2023/05/30 06:19:51;;;;;;;0.00;0.00;;;;;;;;;;5041550;28;20204;-81
2023/05/30 06:22:21;;;;;;;0.00;0.00;;;;;;;;;;5028610;28;20318;-85
2023/05/30 06:24:49;;;;;;;0.00;0.00;;;;;;;;;;5045604;28;20287;-85
2023/05/30 06:27:18;;;;;;;0.00;0.00;;;;;;;;;;5045557;28;20203;-80
2023/05/30 06:29:46;;;;;;;0.00;0.00;;;;;;;;;;5049930;28;20211;-77
2023/05/30 06:32:15;;;;;;;0.00;0.00;;;;;;;;;;5052026;28;20283;-80
2023/05/30 06:34:45;;;;;;;0.00;0.00;;;;;;;;;;5050928;28;20262;-80
2023/05/30 06:37:13;;;;;;;0.00;0.00;;;;;;;;;;5048836;28;20259;-81
2023/05/30 06:39:43;;;;;;;0.00;0.00;;;;;;;;;;5051772;28;20199;-81
2023/05/30 06:42:12;;;;;;;0.00;0.00;;;;;;;;;;5043126;28;20231;-77
2023/05/30 06:44:41;;;;;;;0.00;0.00;;;;;;;;;;5049054;28;20227;-84
2023/05/30 06:47:09;;;;;;;0.00;0.00;;;;;;;;;;5050769;28;20222;-82
2023/05/30 06:49:38;;;;;;;0.00;0.00;;;;;;;;;;5050451;28;20234;-81
2023/05/30 06:52:06;;;;;;;0.00;0.00;;;;;;;;;;5048591;28;20271;-83
2023/05/30 06:54:35;;;;;;;0.00;0.00;;;;;;;;;;5049625;28;20695;-81
2023/05/30 06:57:06;;;;;;;0.00;0.00;;;;;;;;;;5049043;28;20226;-84
2023/05/30 06:59:35;;;;;;;0.00;0.00;;;;;;;;;;5046760;28;20198;-84
2023/05/30 07:02:04;;;;;;;0.00;0.00;;;;;;;;;;5045121;28;20211;-85
2023/05/30 07:04:32;;;;;;;0.00;0.00;;;;;;;;;;5047954;28;20311;-78
2023/05/30 07:07:01;;;;;;;0.00;0.00;;;;;;;;;;5051610;28;20208;-82
2023/05/30 07:09:29;;;;;;;0.00;0.00;;;;;;;;;;5046991;28;20204;-82
2023/05/30 07:11:58;;;;;;;0.00;0.00;;;;;;;;;;5047165;28;20204;-78
2023/05/30 07:14:28;;;;;;;0.00;0.00;;;;;;;;;;5049837;28;20433;-80
2023/05/30 07:16:56;;;;;;;0.00;0.00;;;;;;;;;;5049548;28;20200;-85
2023/05/30 07:19:25;;;;;;;0.00;0.00;;;;;;;;;;5050754;28;20940;-82
2023/05/30 07:21:54;;;;;;;0.00;0.00;;;;;;;;;;5049602;28;20208;-79
2023/05/30 07:24:23;;;;;;;0.00;0.00;;;;;;;;;;5049181;28;20235;-80
2023/05/30 07:26:51;;;;;;;0.00;0.00;;;;;;;;;;5049768;28;20199;-80
2023/05/30 07:29:20;;;;;;;0.00;0.00;;;;;;;;;;5047938;28;20349;-80
2023/05/30 07:31:50;;;;;;;0.00;0.00;;;;;;;;;;5049519;28;20225;-81
2023/05/30 07:34:18;;;;;;;0.00;0.00;;;;;;;;;;5048654;28;20224;-82
2023/05/30 07:36:46;;;;;;;0.00;0.00;;;;;;;;;;5050209;28;20208;-79
2023/05/30 07:39:15;;;;;;;0.00;0.00;;;;;;;;;;5050236;28;20208;-78
2023/05/30 07:41:43;;;;;;;0.00;0.00;;;;;;;;;;5047362;28;20203;-78
2023/05/30 07:44:12;;;;;;;0.00;0.00;;;;;;;;;;5047845;28;20241;-80
2023/05/30 07:46:40;;;;;;;0.00;0.00;;;;;;;;;;5047557;28;20275;-82
2023/05/30 07:49:10;;;;;;;0.00;0.00;;;;;;;;;;5046696;28;20685;-84
2023/05/30 07:51:39;;;;;;;0.00;0.00;;;;;;;;;;5046377;28;20288;-80
2023/05/30 07:54:07;;;;;;;0.00;0.00;;;;;;;;;;5045720;28;20200;-81
2023/05/30 07:56:36;;;;;;;0.00;0.00;;;;;;;;;;5044570;28;20204;-80
2023/05/30 07:59:05;;;;;;;0.00;0.00;;;;;;;;;;5044919;28;20600;-85
2023/05/30 08:01:33;;;;;;;0.00;0.00;;;;;;;;;;5045842;28;20204;-78
2023/05/30 08:04:02;;;;;;;0.00;0.00;;;;;;;;;;5026125;28;20586;-78
2023/05/30 08:06:33;;;;;;;0.00;0.00;;;;;;;;;;5035628;28;20204;-80
2023/05/30 08:09:02;;;;;;;0.00;0.00;;;;;;;;;;5044570;28;20192;-78
2023/05/30 08:11:30;;;;;;;0.00;0.00;;;;;;;;;;5040461;28;20211;-77
2023/05/30 08:13:59;;;;;;;0.00;0.00;;;;;;;;;;5041927;28;20222;-85
2023/05/30 08:16:28;;;;;;;0.00;0.00;;;;;;;;;;5044355;28;20204;-80
2023/05/30 08:18:57;;;;;;;0.00;0.00;;;;;;;;;;5045405;28;20302;-79
2023/05/30 08:21:26;;;;;;;0.00;0.00;;;;;;;;;;5044516;28;20214;-81
2023/05/30 08:23:56;;;;;;;0.00;0.00;;;;;;;;;;5045891;28;20220;-78
2023/05/30 08:26:30;;;;;;;0.00;0.00;;;;;;;;;;5045292;28;20644;-84
2023/05/30 08:28:58;;;;;;;0.00;0.00;;;;;;;;;;5043943;28;20226;-85
2023/05/30 08:31:27;;;;;;;0.00;0.00;;;;;;;;;;5044334;28;20589;-80
2023/05/30 08:33:56;;;;;;;0.00;0.00;;;;;;;;;;5043687;28;20675;-79
2023/05/30 08:36:24;;;;;;;0.00;0.00;;;;;;;;;;5043874;28;20290;-81
2023/05/30 08:38:54;;;;;;;0.00;0.00;;;;;;;;;;5044091;28;20204;-85
2023/05/30 08:41:43;;;;;;;0.00;0.00;;;;;;;;;;5031298;28;20208;-76
2023/05/30 08:44:11;;;;;;;0.00;0.00;;;;;;;;;;5023064;28;20232;-80
2023/05/30 08:46:42;;;;;;;0.00;0.00;;;;;;;;;;5024331;28;20565;-85
2023/05/30 08:49:13;;;;;;;0.00;0.00;;;;;;;;;;5043405;28;20590;-83
2023/05/30 08:51:43;;;;;;;0.00;0.00;;;;;;;;;;5044152;28;20200;-83
2023/05/30 08:54:14;;;;;;;0.00;0.00;;;;;;;;;;5043681;28;20289;-79
2023/05/30 08:56:47;;;;;;;0.00;0.00;;;;;;;;;;5040040;28;20661;-82
2023/05/30 08:59:17;;;;;;;0.00;0.00;;;;;;;;;;5035395;28;20648;-79
2023/05/30 09:01:45;;;;;;;0.00;0.00;;;;;;;;;;5042856;28;20203;-77
2023/05/30 09:04:14;;;;;;;0.00;0.00;;;;;;;;;;5022332;28;20229;-76
2023/05/30 09:06:43;;;;;;;0.00;0.00;;;;;;;;;;5025523;28;20211;-76
2023/05/30 09:09:13;;;;;;;0.00;0.00;;;;;;;;;;5028695;28;20201;-77
2023/05/30 09:11:42;;;;;;;0.00;0.00;;;;;;;;;;5027303;28;20569;-78
2023/05/30 09:14:12;;;;;;;0.00;0.00;;;;;;;;;;5038553;28;20204;-77
2023/05/30 09:16:41;;;;;;;0.00;0.00;;;;;;;;;;5045675;28;20234;-78
2023/05/30 09:19:10;;;;;;;0.00;0.00;;;;;;;;;;5044962;28;20200;-74
2023/05/30 09:21:38;;;;;;;0.00;0.00;;;;;;;;;;5041134;28;20192;-75
2023/05/30 09:24:07;;;;;;;0.00;0.00;;;;;;;;;;5041307;28;20692;-77
2023/05/30 09:26:35;;;;;;;0.00;0.00;;;;;;;;;;5043851;28;20202;-81
2023/05/30 09:29:10;;;;;;;0.00;0.00;;;;;;;;;;5047364;28;20200;-78
2023/05/30 09:31:42;;;;;;;0.00;0.00;;;;;;;;;;5042433;28;20211;-78
2023/05/30 09:34:18;;;;;;;0.00;0.00;;;;;;;;;;5046765;28;20184;-82
2023/05/30 09:36:54;;;;;;;0.00;0.00;;;;;;;;;;5045983;28;20576;-79
2023/05/30 09:39:25;;;;;;;0.00;0.00;;;;;;;;;;5044892;28;20543;-78
2023/05/30 09:41:57;;;;;;;0.00;0.00;;;;;;;;;;5035017;28;20204;-76
2023/05/30 09:44:25;;;;;;;0.00;0.00;;;;;;;;;;5030930;28;20673;-80
2023/05/30 09:47:00;;;;;;;0.00;0.00;;;;;;;;;;5039411;28;20255;-76
2023/05/30 09:49:29;;;;;;;0.00;0.00;;;;;;;;;;5042535;28;20199;-79
2023/05/30 09:51:57;;;;;;;0.00;0.00;;;;;;;;;;5042956;28;20207;-76
2023/05/30 09:54:27;;;;;;;0.00;0.00;;;;;;;;;;5034825;28;20238;-74
2023/05/30 09:56:58;;;;;;;0.00;0.00;;;;;;;;;;5043259;28;20199;-84
2023/05/30 09:59:27;;;;;;;0.00;0.00;;;;;;;;;;5044886;28;20271;-77
2023/05/30 10:01:56;;;;;;;0.00;0.00;;;;;;;;;;5043328;28;20203;-78
2023/05/30 10:04:26;;;;;;;0.00;0.00;;;;;;;;;;5043740;28;20227;-78
2023/05/30 10:06:55;;;;;;;0.00;0.00;;;;;;;;;;5044826;28;20222;-76
2023/05/30 10:09:24;;;;;;;0.00;0.00;;;;;;;;;;5046885;28;20210;-79
2023/05/30 10:11:53;;;;;;;0.00;0.00;;;;;;;;;;5044991;28;20231;-81
2023/05/30 10:14:22;;;;;;;0.00;0.00;;;;;;;;;;5045151;28;20226;-75
2023/05/30 10:16:56;;;;;;;0.00;0.00;;;;;;;;;;5035271;28;20200;-78
2023/05/30 10:19:27;;;;;;;0.00;0.00;;;;;;;;;;5022596;28;20262;-74
2023/05/30 10:21:56;;;;;;;0.00;0.00;;;;;;;;;;5040084;28;20286;-80
2023/05/30 10:24:30;;;;;;;0.00;0.00;;;;;;;;;;5033668;28;20236;-77
2023/05/30 10:27:01;;;;;;;0.00;0.00;;;;;;;;;;5030013;28;20196;-78
2023/05/30 10:29:32;;;;;;;0.00;0.00;;;;;;;;;;5043349;28;20207;-77
2023/05/30 10:32:03;;;;;;;0.00;0.00;;;;;;;;;;5043891;28;20215;-79
2023/05/30 10:34:48;;;;;;;0.00;0.00;;;;;;;;;;5017686;28;20255;-80
2023/05/30 10:37:17;;;;;;;0.00;0.00;;;;;;;;;;5030705;28;20663;-81
2023/05/30 10:39:53;;;;;;;0.00;0.00;;;;;;;;;;5032002;28;20204;-75
2023/05/30 10:42:27;;;;;;;0.00;0.00;;;;;;;;;;5030029;28;20215;-73
2023/05/30 10:45:00;;;;;;;0.00;0.00;;;;;;;;;;5031122;28;20224;-76
2023/05/30 10:47:35;;;;;;;0.00;0.00;;;;;;;;;;5027718;28;20231;-77
2023/05/30 10:50:08;;;;;;;0.00;0.00;;;;;;;;;;5021603;28;20200;-82
2023/05/30 10:52:37;;;;;;;0.00;0.00;;;;;;;;;;5024042;28;20743;-76
2023/05/30 10:55:08;;;;;;;0.00;0.00;;;;;;;;;;5022183;28;20212;-75
2023/05/30 10:57:37;;;;;;;0.00;0.00;;;;;;;;;;5026573;28;20199;-79
2023/05/30 11:00:18;;;;;;;0.00;0.00;;;;;;;;;;5030514;28;20200;-75
2023/05/30 11:02:51;;;;;;;0.00;0.00;;;;;;;;;;5032791;28;20200;-77
2023/05/30 11:05:23;;;;;;;0.00;0.00;;;;;;;;;;5029869;28;20700;-74
2023/05/30 11:07:52;;;;;;;0.00;0.00;;;;;;;;;;5025049;28;20196;-77
2023/05/30 11:10:25;;;;;;;0.00;0.00;;;;;;;;;;5029176;28;20291;-80
2023/05/30 11:12:54;;;;;;;0.00;0.00;;;;;;;;;;5026883;28;20660;-80
2023/05/30 11:15:32;;;;;;;0.00;0.00;;;;;;;;;;5033855;28;20313;-79
2023/05/30 11:18:01;;;;;;;0.00;0.00;;;;;;;;;;5031847;28;20718;-80
2023/05/30 11:20:31;;;;;;;0.00;0.00;;;;;;;;;;5036249;28;20283;-78
2023/05/30 11:23:29;;;;;;;0.00;0.00;;;;;;;;;;5033877;28;20204;-76
2023/05/30 11:25:59;;;;;;;0.00;0.00;;;;;;;;;;5001739;28;20239;-78
2023/05/30 11:28:35;;;;;;;0.00;0.00;;;;;;;;;;5035321;28;20723;-79
2023/05/30 11:31:19;;;;;;;0.00;0.00;;;;;;;;;;5026585;28;20249;-80
2023/05/30 11:33:51;;;;;;;0.00;0.00;;;;;;;;;;5035499;28;20269;-79
2023/05/30 11:36:22;;;;;;;0.00;0.00;;;;;;;;;;5033018;28;20199;-79
2023/05/30 11:38:53;;;;;;;0.00;0.00;;;;;;;;;;5034457;28;20228;-75
2023/05/30 11:41:24;;;;;;;0.00;0.00;;;;;;;;;;5021572;28;20192;-77
2023/05/30 11:43:53;;;;;;;0.00;0.00;;;;;;;;;;5020524;28;20208;-80
2023/05/30 11:46:21;;;;;;;0.00;0.00;;;;;;;;;;5032471;28;20226;-81
2023/05/30 11:48:50;;;;;;;0.00;0.00;;;;;;;;;;5032627;28;20645;-80
2023/05/30 11:51:18;;;;;;;0.00;0.00;;;;;;;;;;5029741;28;20204;-82
2023/05/30 11:53:48;;;;;;;0.00;0.00;;;;;;;;;;5026808;28;20200;-82
2023/05/30 11:56:17;;;;;;;0.00;0.00;;;;;;;;;;5030061;28;20223;-80
2023/05/30 11:58:45;;;;;;;0.00;0.00;;;;;;;;;;5029545;28;20199;-77
2023/05/30 12:01:15;;;;;;;0.00;0.00;;;;;;;;;;5023284;28;20586;-83
2023/05/30 12:03:45;;;;;;;0.00;0.00;;;;;;;;;;5019185;28;20217;-81
2023/05/30 12:06:13;;;;;;;0.00;0.00;;;;;;;;;;5029602;28;20255;-75
2023/05/30 12:08:43;;;;;;;0.00;0.00;;;;;;;;;;5031812;28;20227;-78
2023/05/30 12:11:13;;;;;;;0.00;0.00;;;;;;;;;;5024232;28;20201;-81
2023/05/30 12:13:42;;;;;;;0.00;0.00;;;;;;;;;;5020238;28;20208;-76
2023/05/30 12:16:11;;;;;;;0.00;0.00;;;;;;;;;;5019674;28;20585;-80
2023/05/30 12:18:40;;;;;;;0.00;0.00;;;;;;;;;;5019706;28;20231;-78
2023/05/30 12:21:12;;;;;;;0.00;0.00;;;;;;;;;;5030563;28;20282;-76
2023/05/30 12:23:42;;;;;;;0.00;0.00;;;;;;;;;;5033053;28;20709;-75
2023/05/30 12:26:18;;;;;;;0.00;0.00;;;;;;;;;;5025202;28;20597;-77
2023/05/30 12:28:48;;;;;;;0.00;0.00;;;;;;;;;;5023476;28;20200;-79
2023/05/30 12:31:23;;;;;;;0.00;0.00;;;;;;;;;;5029642;28;20212;-74
2023/05/30 12:33:52;;;;;;;0.00;0.00;;;;;;;;;;5030972;28;20201;-83
2023/05/30 12:36:21;;;;;;;0.00;0.00;;;;;;;;;;5031584;28;20204;-79
2023/05/30 12:38:58;;;;;;;0.00;0.00;;;;;;;;;;5027542;28;20227;-79
2023/05/30 12:41:29;;;;;;;0.00;0.00;;;;;;;;;;5033567;28;20204;-76
2023/05/30 12:43:58;;;;;;;0.00;0.00;;;;;;;;;;5031219;28;20206;-73
2023/05/30 12:46:27;;;;;;;0.00;0.00;;;;;;;;;;5030154;28;20219;-73
2023/05/30 12:48:56;;;;;;;0.00;0.00;;;;;;;;;;5031426;28;20297;-80
2023/05/30 12:51:27;;;;;;;0.00;0.00;;;;;;;;;;5019609;28;20278;-75
2023/05/30 12:53:56;;;;;;;0.00;0.00;;;;;;;;;;5025246;28;20200;-73
2023/05/30 12:58:57;;;;;;;0.00;0.00;;;;;;;;;;4973928;28;20210;-77
2023/05/30 13:01:26;;;;;;;0.00;0.00;;;;;;;;;;4976028;28;20521;-76
2023/05/30 13:03:54;;;;;;;0.00;0.00;;;;;;;;;;4975385;28;20208;-79
2023/05/30 13:06:23;;;;;;;0.00;0.00;;;;;;;;;;4975990;28;20225;-79
2023/05/30 13:08:51;;;;;;;0.00;0.00;;;;;;;;;;4976096;28;20216;-81
2023/05/30 13:11:20;;;;;;;0.00;0.00;;;;;;;;;;4975505;28;20214;-77
2023/05/30 13:13:49;;;;;;;0.00;0.00;;;;;;;;;;4975399;28;20206;-77
2023/05/30 13:16:20;;;;;;;0.00;0.00;;;;;;;;;;4976035;28;20213;-77
2023/05/30 13:18:48;;;;;;;0.00;0.00;;;;;;;;;;4975960;28;20206;-74
2023/05/30 13:21:17;;;;;;;0.00;0.00;;;;;;;;;;4975814;28;20210;-73
2023/05/30 13:23:47;;;;;;;0.00;0.00;;;;;;;;;;4975544;28;20202;-82
2023/05/30 13:26:16;;;;;;;0.00;0.00;;;;;;;;;;4975082;28;20226;-76
2023/05/30 13:28:45;;;;;;;0.00;0.00;;;;;;;;;;4971997;28;20206;-79
2023/05/30 13:31:14;;;;;;;0.00;0.00;;;;;;;;;;4975141;28;20209;-79
2023/05/30 13:33:44;;;;;;;0.00;0.00;;;;;;;;;;4972901;28;20650;-74
2023/05/30 13:36:12;;;;;;;0.00;0.00;;;;;;;;;;4972479;28;20268;-76
2023/05/30 13:38:42;;;;;;;0.00;0.00;;;;;;;;;;4966351;28;20284;-75
2023/05/30 13:41:11;;;;;;;0.00;0.00;;;;;;;;;;4971507;28;20581;-75
2023/05/30 13:43:39;;;;;;;0.00;0.00;;;;;;;;;;4973551;28;20654;-73
2023/05/30 13:46:08;;;;;;;0.00;0.00;;;;;;;;;;4974360;28;20229;-80
2023/05/30 13:48:37;;;;;;;0.00;0.00;;;;;;;;;;4973571;28;20206;-73
2023/05/30 13:51:08;;;;;;;0.00;0.00;;;;;;;;;;4972797;28;20721;-79
2023/05/30 13:53:36;;;;;;;0.00;0.00;;;;;;;;;;4973893;28;20206;-79
2023/05/30 13:56:25;;;;;;;0.00;0.00;;;;;;;;;;4972545;28;20226;-79
2023/05/30 13:58:54;;;;;;;0.00;0.00;;;;;;;;;;4972503;28;20590;-77
2023/05/30 14:01:23;;;;;;;0.00;0.00;;;;;;;;;;4972877;28;20206;-73
2023/05/30 14:03:51;;;;;;;0.00;0.00;;;;;;;;;;4973583;28;20201;-78
2023/05/30 14:06:21;;;;;;;0.00;0.00;;;;;;;;;;4973832;28;20244;-81
2023/05/30 14:08:51;;;;;;;0.00;0.00;;;;;;;;;;4974117;28;20210;-73
2023/05/30 14:11:19;;;;;;;0.00;0.00;;;;;;;;;;4970848;28;20567;-77
2023/05/30 14:13:49;;;;;;;0.00;0.00;;;;;;;;;;4974077;28;20292;-82
2023/05/30 14:16:18;;;;;;;0.00;0.00;;;;;;;;;;4973973;28;20220;-81
2023/05/30 14:18:46;;;;;;;0.00;0.00;;;;;;;;;;4973660;28;20201;-80
2023/05/30 14:21:15;;;;;;;0.00;0.00;;;;;;;;;;4974888;28;20670;-73
2023/05/30 14:23:45;;;;;;;0.00;0.00;;;;;;;;;;4974862;28;20264;-73
2023/05/30 14:26:13;;;;;;;0.00;0.00;;;;;;;;;;4971738;28;20724;-73
2023/05/30 14:28:43;;;;;;;0.00;0.00;;;;;;;;;;4961433;28;20198;-73
2023/05/30 14:31:12;;;;;;;0.00;0.00;;;;;;;;;;4976498;28;20397;-75
2023/05/30 14:33:40;;;;;;;0.00;0.00;;;;;;;;;;4964769;28;20210;-76
2023/05/30 14:36:09;;;;;;;0.00;0.00;;;;;;;;;;4968509;28;20221;-72
2023/05/30 14:38:37;;;;;;;0.00;0.00;;;;;;;;;;4971497;28;20206;-73
2023/05/30 14:41:07;;;;;;;0.00;0.00;;;;;;;;;;4966128;28;20668;-73
2023/05/30 14:43:35;;;;;;;0.00;0.00;;;;;;;;;;4967024;28;20208;-73
2023/05/30 14:46:04;;;;;;;0.00;0.00;;;;;;;;;;4963501;28;20675;-73
2023/05/30 14:48:33;;;;;;;0.00;0.00;;;;;;;;;;4969964;28;20236;-73
2023/05/30 14:51:01;;;;;;;0.00;0.00;;;;;;;;;;4972907;28;20595;-73
2023/05/30 14:53:30;;;;;;;0.00;0.00;;;;;;;;;;4972400;28;20210;-73
2023/05/30 14:55:58;;;;;;;0.00;0.00;;;;;;;;;;4974405;28;20229;-73
2023/05/30 14:58:29;;;;;;;0.00;0.00;;;;;;;;;;4974706;28;20217;-73
2023/05/30 15:00:57;;;;;;;0.00;0.00;;;;;;;;;;4973540;28;20206;-73